Aérodrome :
LOGIN :

S'inscrire | Disclaimer

   EN    FR    IT 

 










Légende :    VFR   VFR Marginal   IFR   IFR Intensif   IFR Très Intensif
Visi : 
Plafond : 
>= 8 km
>= 3000ft
5 à 8 km
1000 à 3000 ft
1500m à 5 km
500 à 1000 ft
800 à 1500m
200 à 500 ft
< 800m
< 200 ft
Symboles :   Orages  Brouillard  Fortes neiges  Fortes précipitations  Vent > 20 kt
SIGMETs :   Divers  Orages  Givrage  Turbulence  Onde Orograph.  Cendres Volcan.






- Altitude de l'aérodrome : 17 ft
- Code IATA : CPH


EKCH - København - Kastrup (Copenhagen)

DERNIER METAR :
  • 031350Z AUTO 22006KT 9999 OVC044/// 17/08 Q1013 nosig

METARs EXPIRÉS :
  • 031320Z AUTO 21009KT 9999 BKN050/// 17/08 Q1013 nosig
  • 031250Z AUTO 22011KT 9999 SCT045/// 18/08 Q1013 nosig
  • 031220Z AUTO 24010KT 9999 SCT046/// BKN092/// 18/08 Q1013 nosig
  • 031150Z AUTO 22010KT 180V240 9999 SCT045/// BKN093/// 19/09 Q1013 nosig
  • 031120Z AUTO 24010KT 210V270 9999 OVC039/// 17/08 Q1013 nosig

TAF TAF EKCH
Valide du 03 à 12h jusqu'au 04 à 12h UTC


031104Z 0312/0412 23010KT 9999 BKN040
TEMPO 0319/0324 RA
TEMPO 0400/0404 23015G25KT RA BKN012
BECMG 0404/0406 23015G25KT RA BKN012
TEMPO 0406/0412 23016KT 4000 -RA BR BKN015



MET'MAP, la Météo Aéronautique d'un coup d'oeil ! - Copyright ORBIFLY Décembre 2007 - Disclaimer

ORBIFLY MET'MAP TEAM :

Programmation & Développement : Alexandra Zaïnal
Sur une idée originale de : Baudouin d'Aumeries
Assistance à la programmation : Marc-Olivier Méhu
Soutien technique & logistique : Manuel Goepfert

Contact : metmap@orbifly.com




SOURCES & CREDITS :

   NOAA